RJST(METAR)
05/22 01:00
METAR RJST 211600Z 10007KT 9999 FEW020 BKN030 BKN100 17/14 Q1008 RMK
1SC020 5SC030 7AC100 A2979=
戻る
トップページへ戻る
IMOC Co,.Ltd.